createdAt,value
2019-04-27T00:00:35.397Z,2.45
2019-04-27T00:03:13.206Z,2.62
2019-04-27T00:05:57.597Z,2.40
2019-04-27T00:08:35.640Z,2.17
2019-04-27T00:11:08.514Z,2.33
2019-04-27T00:13:40.580Z,2.15
2019-04-27T00:16:11.365Z,2.30
2019-04-27T00:18:43.378Z,2.25
2019-04-27T00:21:23.683Z,2.42
2019-04-27T00:23:53.138Z,2.58
2019-04-27T00:26:23.856Z,2.20
2019-04-27T00:28:53.777Z,2.27
2019-04-27T00:31:23.309Z,2.47
2019-04-27T00:33:51.116Z,2.50
2019-04-27T00:36:26.637Z,2.10
2019-04-27T00:39:05.369Z,2.02
2019-04-27T00:41:35.073Z,2.40
2019-04-27T00:44:05.668Z,2.62
2019-04-27T00:46:34.341Z,2.30
2019-04-27T00:49:03.567Z,2.02
2019-04-27T00:51:31.227Z,2.15
2019-04-27T00:53:58.802Z,2.50
2019-04-27T00:56:31.340Z,1.90
2019-04-27T00:59:03.167Z,2.02
2019-04-27T01:01:33.600Z,1.90
2019-04-27T01:04:03.731Z,2.10
2019-04-27T01:06:33.629Z,2.02
2019-04-27T01:09:01.265Z,1.98
2019-04-27T01:11:29.778Z,2.05
2019-04-27T01:14:00.266Z,2.00
2019-04-27T01:16:29.317Z,1.95
2019-04-27T01:18:56.960Z,1.70
2019-04-27T01:21:24.529Z,2.20
2019-04-27T01:23:52.006Z,2.30
2019-04-27T01:26:36.753Z,1.77
2019-04-27T01:29:10.295Z,1.62
2019-04-27T01:31:39.630Z,2.00
2019-04-27T01:34:09.143Z,1.67
2019-04-27T01:36:36.781Z,1.85
2019-04-27T01:39:08.465Z,1.90
2019-04-27T01:41:36.150Z,1.77
2019-04-27T01:44:09.227Z,1.82
2019-04-27T01:46:36.960Z,1.70
2019-04-27T01:49:05.738Z,1.80
2019-04-27T01:51:33.375Z,1.98
2019-04-27T01:54:00.952Z,1.62
2019-04-27T01:56:31.547Z,1.55
2019-04-27T01:58:59.804Z,2.02
2019-04-27T02:01:46.112Z,1.98
2019-04-27T02:04:15.465Z,1.92
2019-04-27T02:06:44.976Z,1.95
2019-04-27T02:09:14.432Z,2.02
2019-04-27T02:11:42.028Z,1.98
2019-04-27T02:14:12.550Z,1.80
2019-04-27T02:16:40.270Z,2.10
2019-04-27T02:19:09.060Z,1.77
2019-04-27T02:21:39.094Z,2.02
2019-04-27T02:24:06.652Z,2.92
2019-04-27T02:26:37.227Z,2.08
2019-04-27T02:29:22.548Z,2.22
2019-04-27T02:31:57.630Z,1.98
2019-04-27T02:34:33.105Z,2.22
2019-04-27T02:37:02.619Z,1.95
2019-04-27T02:39:30.327Z,2.02
2019-04-27T02:41:59.948Z,1.98
2019-04-27T02:44:32.216Z,2.05
2019-04-27T02:47:00.519Z,2.30
2019-04-27T02:49:30.454Z,2.30
2019-04-27T02:52:02.546Z,2.52
2019-04-27T02:54:30.274Z,2.08
2019-04-27T02:57:00.851Z,2.00
2019-04-27T02:59:30.282Z,2.17
2019-04-27T03:02:02.925Z,2.27
2019-04-27T03:04:30.475Z,2.08
2019-04-27T03:07:00.171Z,1.90
2019-04-27T03:09:30.228Z,2.08
2019-04-27T03:11:59.457Z,2.10
2019-04-27T03:14:36.430Z,2.10
2019-04-27T03:17:23.087Z,2.33
2019-04-27T03:19:55.353Z,1.67
2019-04-27T03:22:33.562Z,1.77
2019-04-27T03:25:10.613Z,2.52
2019-04-27T03:27:43.021Z,1.92
2019-04-27T03:30:12.859Z,1.75
2019-04-27T03:32:42.952Z,2.30
2019-04-27T03:35:12.941Z,2.05
2019-04-27T03:37:43.576Z,2.30
2019-04-27T03:40:11.244Z,2.27
2019-04-27T03:42:40.728Z,2.20
2019-04-27T03:45:10.874Z,2.72
2019-04-27T03:47:40.287Z,2.35
2019-04-27T03:50:12.023Z,2.12
2019-04-27T03:52:49.936Z,2.10
2019-04-27T03:55:39.810Z,2.70
2019-04-27T03:58:24.117Z,2.15
2019-04-27T04:00:53.065Z,2.35
2019-04-27T04:03:20.555Z,2.80
2019-04-27T04:05:49.473Z,2.62
2019-04-27T04:08:20.488Z,3.20
2019-04-27T04:10:51.568Z,2.60
2019-04-27T04:13:22.631Z,2.72
2019-04-27T04:15:55.233Z,2.67
2019-04-27T04:18:24.324Z,2.52
2019-04-27T04:20:54.974Z,2.80
2019-04-27T04:23:23.315Z,2.62
2019-04-27T04:25:51.900Z,2.20
2019-04-27T04:28:20.135Z,2.80
2019-04-27T04:30:50.069Z,2.60
2019-04-27T04:33:20.189Z,2.47
2019-04-27T04:35:49.000Z,2.40
2019-04-27T04:38:20.621Z,2.77
2019-04-27T04:40:50.556Z,2.50
2019-04-27T04:43:23.012Z,2.50
2019-04-27T04:46:01.574Z,2.55
2019-04-27T04:48:30.211Z,2.52
2019-04-27T04:51:01.041Z,2.30
2019-04-27T04:53:29.501Z,2.50
2019-04-27T04:55:57.111Z,2.22
2019-04-27T04:58:24.684Z,2.72
2019-04-27T05:00:52.360Z,2.35
2019-04-27T05:03:21.892Z,2.60
2019-04-27T05:05:50.098Z,2.37
2019-04-27T05:08:20.917Z,2.70
2019-04-27T05:10:49.690Z,2.70
2019-04-27T05:13:19.175Z,2.90
2019-04-27T05:15:48.527Z,2.50
2019-04-27T05:18:16.362Z,2.02
2019-04-27T05:20:51.838Z,2.35
2019-04-27T05:23:20.194Z,2.40
2019-04-27T05:25:49.274Z,2.67
2019-04-27T05:28:18.679Z,2.70
2019-04-27T05:30:46.467Z,2.45
2019-04-27T05:33:14.146Z,2.80
2019-04-27T05:35:41.644Z,2.67
2019-04-27T05:38:13.476Z,2.52
2019-04-27T05:40:41.337Z,2.75
2019-04-27T05:43:10.357Z,2.83
2019-04-27T05:46:22.442Z,3.05
2019-04-27T05:48:49.909Z,2.85
2019-04-27T05:51:20.319Z,2.70
2019-04-27T05:53:49.519Z,3.10
2019-04-27T05:56:17.188Z,2.72
2019-04-27T05:58:44.951Z,3.45
2019-04-27T06:01:12.411Z,2.85
2019-04-27T06:03:39.951Z,2.95
2019-04-27T06:06:09.511Z,2.60
2019-04-27T06:08:39.861Z,2.75
2019-04-27T06:11:09.247Z,2.92
2019-04-27T06:13:36.765Z,2.90
2019-04-27T06:16:04.452Z,2.55
2019-04-27T06:18:31.934Z,2.77
2019-04-27T06:21:03.432Z,2.70
2019-04-27T06:23:31.716Z,3.00
2019-04-27T06:26:01.698Z,3.10
2019-04-27T06:28:29.331Z,2.58
2019-04-27T06:30:59.441Z,3.42
2019-04-27T06:33:32.054Z,3.35
2019-04-27T06:35:56.589Z,3.55
2019-04-27T06:38:29.216Z,3.50
2019-04-27T06:40:56.826Z,4.08
2019-04-27T06:43:24.334Z,3.90
2019-04-27T06:45:51.798Z,4.25
2019-04-27T06:48:19.440Z,4.08
2019-04-27T06:51:02.493Z,3.50
2019-04-27T06:53:20.378Z,3.33
2019-04-27T06:55:49.678Z,3.02
2019-04-27T06:58:20.002Z,7.15
2019-04-27T07:00:49.590Z,3.35
2019-04-27T07:03:18.871Z,3.30
2019-04-27T07:05:46.592Z,3.17
2019-04-27T07:08:18.656Z,2.87
2019-04-27T07:10:46.645Z,2.70
2019-04-27T07:13:14.126Z,2.70
2019-04-27T07:15:42.430Z,2.52
2019-04-27T07:18:10.063Z,2.85
2019-04-27T07:20:38.881Z,2.30
2019-04-27T07:23:09.545Z,2.30
2019-04-27T07:25:38.785Z,2.20
2019-04-27T07:28:06.608Z,2.55
2019-04-27T07:30:34.859Z,2.62
2019-04-27T07:33:02.530Z,2.10
2019-04-27T07:35:33.058Z,1.95
2019-04-27T07:38:01.365Z,2.40
2019-04-27T07:40:30.402Z,2.17
2019-04-27T07:42:59.923Z,2.15
2019-04-27T07:45:29.551Z,2.00
2019-04-27T07:47:59.048Z,1.98
2019-04-27T07:50:26.758Z,1.90
2019-04-27T07:52:58.702Z,1.80
2019-04-27T07:55:26.346Z,2.05
2019-04-27T07:57:53.939Z,1.90
2019-04-27T08:00:24.822Z,2.00
2019-04-27T08:02:52.543Z,2.00
2019-04-27T08:05:21.939Z,1.80
2019-04-27T08:07:53.238Z,2.10
2019-04-27T08:10:20.850Z,1.75
2019-04-27T08:12:51.348Z,1.80
2019-04-27T08:15:19.073Z,1.60
2019-04-27T08:17:49.081Z,1.65
2019-04-27T08:20:16.755Z,1.50
2019-04-27T08:22:47.304Z,1.75
2019-04-27T08:25:14.996Z,1.70
2019-04-27T08:27:49.335Z,1.40
2019-04-27T08:30:19.781Z,1.40
2019-04-27T08:32:53.182Z,1.40
2019-04-27T08:35:21.401Z,1.40
2019-04-27T08:38:09.065Z,1.57
2019-04-27T08:40:37.175Z,1.50
2019-04-27T08:43:04.958Z,1.45
2019-04-27T08:45:32.440Z,1.22
2019-04-27T08:48:00.066Z,1.47
2019-04-27T08:50:28.615Z,1.50
2019-04-27T08:52:56.383Z,1.47
2019-04-27T08:55:24.060Z,1.50
2019-04-27T08:57:51.704Z,1.60
2019-04-27T09:00:19.452Z,1.85
2019-04-27T09:02:49.968Z,1.30
2019-04-27T09:05:19.266Z,1.20
2019-04-27T09:07:59.880Z,1.25
2019-04-27T09:10:46.137Z,1.10
2019-04-27T09:13:16.350Z,0.98
2019-04-27T09:15:54.492Z,0.90
2019-04-27T09:18:28.910Z,0.90
2019-04-27T09:21:01.630Z,0.80
2019-04-27T09:23:29.428Z,1.10
2019-04-27T09:25:57.143Z,0.93
2019-04-27T09:28:24.807Z,1.10
2019-04-27T09:30:52.563Z,0.70
2019-04-27T09:33:22.254Z,1.62
2019-04-27T09:35:50.635Z,1.22
2019-04-27T09:38:18.561Z,1.10
2019-04-27T09:40:46.983Z,2.15
2019-04-27T09:43:15.761Z,4.58
2019-04-27T09:45:43.479Z,4.90
2019-04-27T09:48:11.981Z,3.42
2019-04-27T09:50:39.939Z,1.60
2019-04-27T09:53:07.423Z,0.90
2019-04-27T09:55:36.717Z,1.00
2019-04-27T09:58:05.778Z,0.78
2019-04-27T10:00:33.726Z,1.00
2019-04-27T10:03:06.381Z,0.80
2019-04-27T10:05:36.532Z,0.85
2019-04-27T10:08:03.587Z,0.80
2019-04-27T10:10:31.596Z,0.88
2019-04-27T10:12:59.364Z,0.93
2019-04-27T10:15:27.668Z,0.90
2019-04-27T10:17:57.695Z,0.90
2019-04-27T10:20:27.383Z,0.88
2019-04-27T10:22:56.457Z,0.70
2019-04-27T10:25:26.363Z,0.78
2019-04-27T10:27:57.965Z,0.80
2019-04-27T10:30:29.426Z,0.90
2019-04-27T10:32:57.415Z,1.20
2019-04-27T10:35:28.969Z,1.03
2019-04-27T10:37:56.796Z,0.90
2019-04-27T10:40:26.221Z,0.80
2019-04-27T10:42:53.964Z,0.85
2019-04-27T10:45:21.625Z,0.60
2019-04-27T10:47:49.637Z,1.05
2019-04-27T10:50:17.384Z,0.80
2019-04-27T10:52:53.292Z,0.85
2019-04-27T10:55:16.098Z,0.85
2019-04-27T10:57:44.006Z,0.57
2019-04-27T11:00:13.488Z,0.60
2019-04-27T11:02:41.297Z,0.60
2019-04-27T11:05:14.031Z,0.80
2019-04-27T11:07:43.176Z,0.70
2019-04-27T11:10:11.302Z,0.60
2019-04-27T11:12:39.679Z,0.50
2019-04-27T11:15:08.076Z,0.88
2019-04-27T11:17:37.044Z,0.60
2019-04-27T11:20:05.940Z,0.75
2019-04-27T11:22:36.175Z,0.82
2019-04-27T11:25:08.215Z,0.70
2019-04-27T11:27:36.207Z,0.80
2019-04-27T11:30:07.092Z,0.57
2019-04-27T11:32:38.647Z,0.70
2019-04-27T11:35:21.851Z,0.50
2019-04-27T11:37:51.355Z,1.13
2019-04-27T11:40:20.075Z,0.30
2019-04-27T11:42:47.626Z,0.60
2019-04-27T11:45:16.388Z,0.70
2019-04-27T11:47:44.001Z,0.42
2019-04-27T11:50:11.694Z,0.75
2019-04-27T11:52:39.352Z,0.60
2019-04-27T11:55:07.176Z,0.62
2019-04-27T11:57:37.925Z,0.50
2019-04-27T12:00:07.460Z,0.55
2019-04-27T12:02:35.983Z,0.40
2019-04-27T12:05:07.726Z,0.60
2019-04-27T12:07:37.893Z,0.50
2019-04-27T12:10:06.064Z,0.55
2019-04-27T12:12:33.872Z,0.60
2019-04-27T12:15:01.556Z,0.47
2019-04-27T12:17:29.327Z,0.50
2019-04-27T12:19:57.261Z,0.70
2019-04-27T12:22:24.861Z,0.60
2019-04-27T12:24:53.453Z,0.98
2019-04-27T12:27:40.906Z,0.55
2019-04-27T12:30:19.513Z,0.70
2019-04-27T12:32:50.744Z,0.80
2019-04-27T12:35:18.909Z,0.68
2019-04-27T12:37:46.563Z,0.90
2019-04-27T12:40:14.038Z,1.12
2019-04-27T12:42:42.339Z,0.78
2019-04-27T12:45:09.839Z,0.90
2019-04-27T12:47:37.625Z,0.78
2019-04-27T12:50:08.931Z,1.00
2019-04-27T12:52:36.751Z,1.00
2019-04-27T12:55:25.713Z,0.85
2019-04-27T12:58:01.349Z,1.00
2019-04-27T13:00:32.159Z,1.07
2019-04-27T13:03:03.831Z,0.95
2019-04-27T13:05:32.198Z,1.00
2019-04-27T13:08:00.096Z,0.90
2019-04-27T13:10:27.801Z,0.70
2019-04-27T13:12:56.203Z,0.62
2019-04-27T13:15:23.989Z,0.90
2019-04-27T13:17:51.631Z,1.00
2019-04-27T13:20:19.524Z,0.90
2019-04-27T13:22:47.163Z,0.70
2019-04-27T13:25:15.553Z,0.72
2019-04-27T13:27:43.053Z,0.55
2019-04-27T13:30:11.267Z,0.50
2019-04-27T13:32:38.723Z,0.42
2019-04-27T13:35:06.400Z,0.72
2019-04-27T13:37:36.734Z,0.30
2019-04-27T13:40:09.739Z,0.47
2019-04-27T13:42:40.366Z,0.50
2019-04-27T13:45:26.725Z,1.02
2019-04-27T13:47:56.406Z,0.40
2019-04-27T13:50:26.088Z,0.25
2019-04-27T13:52:53.776Z,0.37
2019-04-27T13:55:21.557Z,0.35
2019-04-27T13:57:50.281Z,0.30
2019-04-27T14:00:18.995Z,0.30
2019-04-27T14:02:46.595Z,0.20
2019-04-27T14:05:14.146Z,0.20
2019-04-27T14:07:42.179Z,0.30
2019-04-27T14:10:09.964Z,0.20
2019-04-27T14:12:38.629Z,0.37
2019-04-27T14:15:08.653Z,0.37
2019-04-27T14:17:36.606Z,0.20
2019-04-27T14:20:04.592Z,0.33
2019-04-27T14:22:35.406Z,0.30
2019-04-27T14:25:04.485Z,0.20
2019-04-27T14:27:36.661Z,0.50
2019-04-27T14:30:09.127Z,0.20
2019-04-27T14:32:38.656Z,0.68
2019-04-27T14:35:08.289Z,0.50
2019-04-27T14:37:36.039Z,0.40
2019-04-27T14:40:05.421Z,0.70
2019-04-27T14:42:33.431Z,0.42
2019-04-27T14:45:00.896Z,0.40
2019-04-27T14:47:28.530Z,0.45
2019-04-27T14:49:59.068Z,0.53
2019-04-27T14:52:27.159Z,0.80
2019-04-27T14:54:58.325Z,0.57
2019-04-27T14:57:25.989Z,0.80
2019-04-27T14:59:54.422Z,0.70
2019-04-27T15:02:22.867Z,0.47
2019-04-27T15:04:50.561Z,0.37
2019-04-27T15:07:19.222Z,0.50
2019-04-27T15:09:49.678Z,0.60
2019-04-27T15:12:19.390Z,0.45
2019-04-27T15:14:47.053Z,0.37
2019-04-27T15:17:17.610Z,0.50
2019-04-27T15:19:48.374Z,0.60
2019-04-27T15:22:19.619Z,0.37
2019-04-27T15:25:06.395Z,0.78
2019-04-27T15:27:20.578Z,0.50
2019-04-27T15:29:48.415Z,0.50
2019-04-27T15:32:23.885Z,0.50
2019-04-27T15:35:05.205Z,0.62
2019-04-27T15:37:36.435Z,2.05
2019-04-27T15:40:23.164Z,0.50
2019-04-27T15:42:58.610Z,0.47
2019-04-27T15:45:28.491Z,0.82
2019-04-27T15:47:58.273Z,0.65
2019-04-27T15:50:30.254Z,2.10
2019-04-27T15:52:56.374Z,3.05
2019-04-27T15:55:32.137Z,2.02
2019-04-27T15:57:54.278Z,4.35
2019-04-27T16:00:23.963Z,1.57
2019-04-27T16:02:52.706Z,1.65
2019-04-27T16:05:23.576Z,1.65
2019-04-27T16:07:49.961Z,1.67
2019-04-27T16:10:19.992Z,1.00
2019-04-27T16:13:05.908Z,0.72
2019-04-27T16:15:18.480Z,0.70
2019-04-27T16:17:53.419Z,0.57
2019-04-27T16:20:22.509Z,0.42
2019-04-27T16:22:48.732Z,0.53
2019-04-27T16:25:18.512Z,0.40
2019-04-27T16:27:51.124Z,0.50
2019-04-27T16:30:20.721Z,0.55
2019-04-27T16:32:49.297Z,0.90
2019-04-27T16:35:19.399Z,0.70
2019-04-27T16:38:03.786Z,0.72
2019-04-27T16:40:31.363Z,0.98
2019-04-27T16:42:59.161Z,0.60
2019-04-27T16:45:28.111Z,0.50
2019-04-27T16:47:57.532Z,0.50
2019-04-27T16:50:27.277Z,0.53
2019-04-27T16:52:59.095Z,0.62
2019-04-27T16:55:28.030Z,0.50
2019-04-27T16:57:54.993Z,0.68
2019-04-27T17:00:26.489Z,0.70
2019-04-27T17:03:01.346Z,0.60
2019-04-27T17:05:30.838Z,0.57
2019-04-27T17:07:55.762Z,0.47
2019-04-27T17:10:26.459Z,0.60
2019-04-27T17:12:53.076Z,0.60
2019-04-27T17:15:41.953Z,0.62
2019-04-27T17:20:41.704Z,0.60
2019-04-27T17:23:09.426Z,0.60
2019-04-27T17:25:41.024Z,0.53
2019-04-27T17:28:08.790Z,1.20
2019-04-27T17:30:39.711Z,1.80
2019-04-27T17:33:19.276Z,1.50
2019-04-27T17:35:46.016Z,1.30
2019-04-27T17:38:18.160Z,0.90
2019-04-27T17:40:48.364Z,0.75
2019-04-27T17:43:18.991Z,0.65
2019-04-27T17:45:48.608Z,0.95
2019-04-27T17:48:18.343Z,0.78
2019-04-27T17:50:48.945Z,0.90
2019-04-27T17:53:18.166Z,0.75
2019-04-27T17:55:45.843Z,0.88
2019-04-27T17:58:13.889Z,0.60
2019-04-27T18:00:44.562Z,0.93
2019-04-27T18:03:12.658Z,0.50
2019-04-27T18:05:43.765Z,0.62
2019-04-27T18:08:13.525Z,0.50
2019-04-27T18:10:42.293Z,0.57
2019-04-27T18:13:09.874Z,0.50
2019-04-27T18:15:38.813Z,0.40
2019-04-27T18:18:15.161Z,0.68
2019-04-27T18:20:43.444Z,0.57
2019-04-27T18:23:18.755Z,0.60
2019-04-27T18:26:05.035Z,0.90
2019-04-27T18:28:34.837Z,0.93
2019-04-27T18:31:04.045Z,0.80
2019-04-27T18:33:32.857Z,0.80
2019-04-27T18:36:05.162Z,0.60
2019-04-27T18:38:35.831Z,0.50
2019-04-27T18:41:08.125Z,0.68
2019-04-27T18:43:38.892Z,0.60
2019-04-27T18:46:08.926Z,0.90
2019-04-27T18:48:50.344Z,0.70
2019-04-27T18:51:20.625Z,0.85
2019-04-27T18:53:48.063Z,1.10
2019-04-27T18:56:19.052Z,1.05
2019-04-27T18:58:49.920Z,0.88
2019-04-27T19:01:21.698Z,0.82
2019-04-27T19:03:49.635Z,1.20
2019-04-27T19:06:18.832Z,1.00
2019-04-27T19:08:46.584Z,1.07
2019-04-27T19:11:14.326Z,1.20
2019-04-27T19:13:42.585Z,1.35
2019-04-27T19:16:10.103Z,1.30
2019-04-27T19:18:40.860Z,1.42
2019-04-27T19:21:08.856Z,1.10
2019-04-27T19:23:38.213Z,1.20
2019-04-27T19:26:20.512Z,1.22
2019-04-27T19:29:05.922Z,1.25
2019-04-27T19:31:38.298Z,1.00
2019-04-27T19:34:06.120Z,1.05
2019-04-27T19:36:33.993Z,1.20
2019-04-27T19:39:01.994Z,1.30
2019-04-27T19:41:31.589Z,1.60
2019-04-27T19:44:01.070Z,1.30
2019-04-27T19:46:32.218Z,1.07
2019-04-27T19:49:00.612Z,1.37
2019-04-27T19:51:28.329Z,1.22
2019-04-27T19:53:59.622Z,1.50
2019-04-27T19:56:28.338Z,1.37
2019-04-27T19:59:01.357Z,1.87
2019-04-27T20:01:40.081Z,1.07
2019-04-27T20:04:16.000Z,1.40
2019-04-27T20:06:48.413Z,1.10
2019-04-27T20:09:19.138Z,1.32
2019-04-27T20:11:47.588Z,1.05
2019-04-27T20:14:15.490Z,1.30
2019-04-27T20:16:43.193Z,1.30
2019-04-27T20:19:11.445Z,1.20
2019-04-27T20:21:42.376Z,1.20
2019-04-27T20:24:11.812Z,1.30
2019-04-27T20:26:39.621Z,1.20
2019-04-27T20:29:07.491Z,1.42
2019-04-27T20:31:36.914Z,1.20
2019-04-27T20:34:08.040Z,1.32
2019-04-27T20:36:35.631Z,1.50
2019-04-27T20:39:05.936Z,0.98
2019-04-27T20:41:35.254Z,1.27
2019-04-27T20:44:03.665Z,1.55
2019-04-27T20:46:32.807Z,1.20
2019-04-27T20:49:02.440Z,1.15
2019-04-27T20:51:52.870Z,1.05
2019-04-27T20:54:22.090Z,1.17
2019-04-27T20:56:51.573Z,1.30
2019-04-27T20:59:19.843Z,1.75
2019-04-27T21:01:47.425Z,1.20
2019-04-27T21:04:17.154Z,1.50
2019-04-27T21:06:51.139Z,1.47
2019-04-27T21:09:18.951Z,1.42
2019-04-27T21:11:48.139Z,1.37
2019-04-27T21:14:15.823Z,1.40
2019-04-27T21:16:44.053Z,1.50
2019-04-27T21:19:11.789Z,1.25
2019-04-27T21:21:40.747Z,1.50
2019-04-27T21:24:08.870Z,1.65
2019-04-27T21:26:36.432Z,1.70
2019-04-27T21:29:07.197Z,1.50
2019-04-27T21:31:38.135Z,1.20
2019-04-27T21:34:06.224Z,1.20
2019-04-27T21:36:34.640Z,1.50
2019-04-27T21:39:05.230Z,1.35
2019-04-27T21:41:35.440Z,1.75
2019-04-27T21:44:03.857Z,1.87
2019-04-27T21:46:34.640Z,1.35
2019-04-27T21:49:01.531Z,1.60
2019-04-27T21:51:30.746Z,1.37
2019-04-27T21:54:03.627Z,1.42
2019-04-27T21:56:31.656Z,1.77
2019-04-27T21:59:01.035Z,1.72
2019-04-27T22:01:31.882Z,1.72
2019-04-27T22:04:04.490Z,1.65
2019-04-27T22:06:32.451Z,1.30
2019-04-27T22:09:01.292Z,1.30
2019-04-27T22:11:31.907Z,1.47
2019-04-27T22:14:01.333Z,1.80
2019-04-27T22:16:31.468Z,1.25
2019-04-27T22:19:01.916Z,1.60
2019-04-27T22:21:31.678Z,1.50
2019-04-27T22:24:01.721Z,1.42
2019-04-27T22:26:31.434Z,1.52
2019-04-27T22:29:01.473Z,1.67
2019-04-27T22:31:31.336Z,1.55
2019-04-27T22:33:59.590Z,1.30
2019-04-27T22:36:27.422Z,1.60
2019-04-27T22:38:57.591Z,2.08
2019-04-27T22:41:27.808Z,1.62
2019-04-27T22:44:16.780Z,1.75
2019-04-27T22:46:54.740Z,1.42
2019-04-27T22:49:25.230Z,1.30
2019-04-27T22:51:53.636Z,1.57
2019-04-27T22:54:21.794Z,1.80
2019-04-27T22:56:51.560Z,1.37
2019-04-27T22:59:31.674Z,1.12
2019-04-27T23:02:04.805Z,1.50
2019-04-27T23:04:37.020Z,1.20
2019-04-27T23:07:05.835Z,1.60
2019-04-27T23:09:34.201Z,1.22
2019-04-27T23:12:02.571Z,1.00
2019-04-27T23:14:31.316Z,0.93
2019-04-27T23:17:03.122Z,1.22
2019-04-27T23:19:31.239Z,1.40
2019-04-27T23:22:00.757Z,1.05
2019-04-27T23:24:28.512Z,1.27
2019-04-27T23:26:57.262Z,1.10
2019-04-27T23:29:24.987Z,1.00
2019-04-27T23:31:57.896Z,1.30
2019-04-27T23:34:25.610Z,1.17
2019-04-27T23:36:53.784Z,1.10
2019-04-27T23:39:21.544Z,1.30
2019-04-27T23:41:49.898Z,0.90
2019-04-27T23:44:20.703Z,0.93
2019-04-27T23:46:51.355Z,1.12
2019-04-27T23:49:19.243Z,1.10
2019-04-27T23:51:51.488Z,1.20
2019-04-27T23:54:19.775Z,1.37
2019-04-27T23:56:47.437Z,1.00
2019-04-27T23:59:25.125Z,1.20
